Terminal Aerodrome Forecast
Issued by NWS

Home | Current Version | Previous Version | Text Only | Print | Product List | Glossary On
Versions: 1 2 3 4 5 6 7 8 9 10 11 12 13 14 15 16 17 18 19 20 21 22 23 24 25 26 27 28 29 30 31 32 33 34 35 36
000
FTUS43 KDTX 281503 AAA
TAFYIP
TAF AMD
KYIP 281503Z 2815/0112 14008KT 6SM BR OVC060
      TEMPO 2815/2818 3SM -DZ BR SCT008 OVC040
     FM281800 16010KT 6SM BR OVC025
     FM282200 19010KT 4SM -SHRA BR OVC015
     FM010100 18012KT 1SM SHRA BR OVC008
     FM010400 20014KT 3SM SHRA BR OVC004
     FM011100 22014G20KT 5SM -SHRA BKN008 OVC015=

USA.gov is the U.S. government's official web portal to all federal, state and local government web resources and services.